sensor_id;sensor_type;location;lat;lon;timestamp;pressure;altitude;pressure_sealevel;temperature;humidity
62946;BME280;52164;52.212;-1.010;2023-05-01T00:01:31;100801.73;;;11.63;74.02
62946;BME280;52164;52.212;-1.010;2023-05-01T00:03:57;100799.40;;;11.59;73.92
62946;BME280;52164;52.212;-1.010;2023-05-01T00:06:22;100794.20;;;11.53;74.02
62946;BME280;52164;52.212;-1.010;2023-05-01T00:08:47;100798.69;;;11.50;74.12
62946;BME280;52164;52.212;-1.010;2023-05-01T00:11:13;100788.85;;;11.48;74.17
62946;BME280;52164;52.212;-1.010;2023-05-01T00:13:39;100793.32;;;11.44;74.32
62946;BME280;52164;52.212;-1.010;2023-05-01T00:16:08;100788.67;;;11.42;74.27
62946;BME280;52164;52.212;-1.010;2023-05-01T00:18:34;100787.60;;;11.40;74.43
62946;BME280;52164;52.212;-1.010;2023-05-01T00:20:59;100785.64;;;11.38;74.53
62946;BME280;52164;52.212;-1.010;2023-05-01T00:23:24;100781.16;;;11.36;74.50
62946;BME280;52164;52.212;-1.010;2023-05-01T00:25:49;100778.65;;;11.34;74.42
62946;BME280;52164;52.212;-1.010;2023-05-01T00:28:16;100773.65;;;11.31;74.53
62946;BME280;52164;52.212;-1.010;2023-05-01T00:30:42;100770.06;;;11.26;74.65
62946;BME280;52164;52.212;-1.010;2023-05-01T00:33:07;100767.75;;;11.24;74.66
62946;BME280;52164;52.212;-1.010;2023-05-01T00:35:32;100765.94;;;11.20;74.83
62946;BME280;52164;52.212;-1.010;2023-05-01T00:37:59;100763.45;;;11.15;74.77
62946;BME280;52164;52.212;-1.010;2023-05-01T00:40:24;100760.39;;;11.12;74.68
62946;BME280;52164;52.212;-1.010;2023-05-01T00:42:50;100758.60;;;11.05;74.70
62946;BME280;52164;52.212;-1.010;2023-05-01T00:45:16;100758.77;;;10.98;74.65
62946;BME280;52164;52.212;-1.010;2023-05-01T00:47:43;100752.67;;;10.89;74.63
62946;BME280;52164;52.212;-1.010;2023-05-01T00:50:08;100752.12;;;10.82;74.96
62946;BME280;52164;52.212;-1.010;2023-05-01T00:52:34;100748.71;;;10.76;75.13
62946;BME280;52164;52.212;-1.010;2023-05-01T00:55:00;100744.75;;;10.68;75.48
62946;BME280;52164;52.212;-1.010;2023-05-01T00:57:25;100746.52;;;10.61;75.42
62946;BME280;52164;52.212;-1.010;2023-05-01T00:59:51;100740.06;;;10.54;75.66
62946;BME280;52164;52.212;-1.010;2023-05-01T01:02:16;100737.89;;;10.47;75.89
62946;BME280;52164;52.212;-1.010;2023-05-01T01:04:43;100736.64;;;10.42;75.95
62946;BME280;52164;52.212;-1.010;2023-05-01T01:07:41;100735.36;;;10.36;76.11
62946;BME280;52164;52.212;-1.010;2023-05-01T01:09:55;100736.55;;;10.30;76.17
62946;BME280;52164;52.212;-1.010;2023-05-01T01:13:31;100732.23;;;10.25;76.36
62946;BME280;52164;52.212;-1.010;2023-05-01T01:15:17;100735.23;;;10.19;76.38
62946;BME280;52164;52.212;-1.010;2023-05-01T01:17:52;100736.81;;;10.14;76.71
62946;BME280;52164;52.212;-1.010;2023-05-01T01:20:40;100736.98;;;10.10;76.64
62946;BME280;52164;52.212;-1.010;2023-05-01T01:30:53;100723.04;;;10.05;77.19
62946;BME280;52164;52.212;-1.010;2023-05-01T01:34:31;100721.27;;;10.07;77.38
62946;BME280;52164;52.212;-1.010;2023-05-01T01:36:09;100721.98;;;10.08;77.58
62946;BME280;52164;52.212;-1.010;2023-05-01T01:38:39;100726.65;;;10.12;77.53
62946;BME280;52164;52.212;-1.010;2023-05-01T01:41:09;100721.67;;;10.17;77.56
62946;BME280;52164;52.212;-1.010;2023-05-01T01:43:37;100718.85;;;10.22;77.45
62946;BME280;52164;52.212;-1.010;2023-05-01T01:46:04;100717.82;;;10.28;77.33
62946;BME280;52164;52.212;-1.010;2023-05-01T01:48:32;100715.36;;;10.34;77.28
62946;BME280;52164;52.212;-1.010;2023-05-01T01:50:58;100709.84;;;10.39;77.29
62946;BME280;52164;52.212;-1.010;2023-05-01T01:53:25;100705.77;;;10.42;77.27
62946;BME280;52164;52.212;-1.010;2023-05-01T01:55:52;100704.16;;;10.47;77.40
62946;BME280;52164;52.212;-1.010;2023-05-01T01:58:18;100698.48;;;10.50;77.32
62946;BME280;52164;52.212;-1.010;2023-05-01T02:00:48;100697.60;;;10.55;77.32
62946;BME280;52164;52.212;-1.010;2023-05-01T02:03:14;100693.31;;;10.59;77.01
62946;BME280;52164;52.212;-1.010;2023-05-01T02:05:41;100691.01;;;10.61;76.92
62946;BME280;52164;52.212;-1.010;2023-05-01T02:08:07;100688.34;;;10.61;76.80
62946;BME280;52164;52.212;-1.010;2023-05-01T02:10:33;100689.76;;;10.60;76.49
62946;BME280;52164;52.212;-1.010;2023-05-01T02:13:00;100690.83;;;10.58;76.41
62946;BME280;52164;52.212;-1.010;2023-05-01T02:15:28;100691.17;;;10.56;76.45
62946;BME280;52164;52.212;-1.010;2023-05-01T02:17:54;100692.25;;;10.53;76.58
62946;BME280;52164;52.212;-1.010;2023-05-01T02:20:20;100687.41;;;10.50;76.75
62946;BME280;52164;52.212;-1.010;2023-05-01T02:22:46;100685.25;;;10.48;76.80
62946;BME280;52164;52.212;-1.010;2023-05-01T02:25:11;100680.61;;;10.46;76.98
62946;BME280;52164;52.212;-1.010;2023-05-01T02:27:37;100681.33;;;10.43;76.90
62946;BME280;52164;52.212;-1.010;2023-05-01T02:30:05;100681.50;;;10.41;77.16
62946;BME280;52164;52.212;-1.010;2023-05-01T02:32:31;100679.52;;;10.37;77.38
62946;BME280;52164;52.212;-1.010;2023-05-01T02:34:56;100676.66;;;10.35;77.45
62946;BME280;52164;52.212;-1.010;2023-05-01T02:37:21;100678.61;;;10.34;77.91
62946;BME280;52164;52.212;-1.010;2023-05-01T02:39:47;100676.65;;;10.34;77.98
62946;BME280;52164;52.212;-1.010;2023-05-01T02:42:12;100677.37;;;10.35;77.36
62946;BME280;52164;52.212;-1.010;2023-05-01T02:44:42;100674.88;;;10.36;78.05
62946;BME280;52164;52.212;-1.010;2023-05-01T02:47:09;100676.48;;;10.38;77.74
62946;BME280;52164;52.212;-1.010;2023-05-01T02:49:39;100673.65;;;10.42;77.94
62946;BME280;52164;52.212;-1.010;2023-05-01T02:52:05;100670.27;;;10.45;77.74
62946;BME280;52164;52.212;-1.010;2023-05-01T02:54:31;100670.80;;;10.48;77.73
62946;BME280;52164;52.212;-1.010;2023-05-01T02:56:56;100666.89;;;10.52;77.76
62946;BME280;52164;52.212;-1.010;2023-05-01T02:59:23;100658.70;;;10.53;77.41
62946;BME280;52164;52.212;-1.010;2023-05-01T03:01:48;100656.02;;;10.53;77.32
62946;BME280;52164;52.212;-1.010;2023-05-01T03:04:14;100653.15;;;10.51;77.12
62946;BME280;52164;52.212;-1.010;2023-05-01T03:06:39;100650.65;;;10.47;77.05
62946;BME280;52164;52.212;-1.010;2023-05-01T03:09:04;100644.92;;;10.43;77.12
62946;BME280;52164;52.212;-1.010;2023-05-01T03:11:30;100642.05;;;10.39;77.28
62946;BME280;52164;52.212;-1.010;2023-05-01T03:13:55;100638.66;;;10.36;77.28
62946;BME280;52164;52.212;-1.010;2023-05-01T03:16:21;100636.69;;;10.34;77.60
62946;BME280;52164;52.212;-1.010;2023-05-01T03:18:46;100640.95;;;10.32;77.62
62946;BME280;52164;52.212;-1.010;2023-05-01T03:21:12;100639.69;;;10.32;77.58
62946;BME280;52164;52.212;-1.010;2023-05-01T03:23:38;100639.16;;;10.31;77.43
62946;BME280;52164;52.212;-1.010;2023-05-01T03:26:03;100643.08;;;10.30;77.32
62946;BME280;52164;52.212;-1.010;2023-05-01T03:28:28;100643.77;;;10.29;77.42
62946;BME280;52164;52.212;-1.010;2023-05-01T03:30:53;100642.70;;;10.29;77.43
62946;BME280;52164;52.212;-1.010;2023-05-01T03:33:19;100636.27;;;10.26;77.31
62946;BME280;52164;52.212;-1.010;2023-05-01T03:35:44;100642.14;;;10.22;77.45
62946;BME280;52164;52.212;-1.010;2023-05-01T03:38:09;100640.70;;;10.17;77.49
62946;BME280;52164;52.212;-1.010;2023-05-01T03:40:35;100641.95;;;10.14;77.64
62946;BME280;52164;52.212;-1.010;2023-05-01T03:43:00;100642.65;;;10.12;77.75
62946;BME280;52164;52.212;-1.010;2023-05-01T03:45:25;100644.25;;;10.11;77.93
62946;BME280;52164;52.212;-1.010;2023-05-01T03:47:51;100646.57;;;10.11;77.72
62946;BME280;52164;52.212;-1.010;2023-05-01T03:50:17;100647.45;;;10.10;77.74
62946;BME280;52164;52.212;-1.010;2023-05-01T03:52:42;100648.34;;;10.10;77.76
62946;BME280;52164;52.212;-1.010;2023-05-01T03:55:07;100650.50;;;10.12;77.76
62946;BME280;52164;52.212;-1.010;2023-05-01T03:57:33;100650.68;;;10.14;77.67
62946;BME280;52164;52.212;-1.010;2023-05-01T03:59:58;100645.52;;;10.16;77.72
62946;BME280;52164;52.212;-1.010;2023-05-01T04:02:24;100647.48;;;10.16;77.76
62946;BME280;52164;52.212;-1.010;2023-05-01T04:04:49;100643.73;;;10.16;77.97
62946;BME280;52164;52.212;-1.010;2023-05-01T04:07:15;100645.14;;;10.14;77.90
62946;BME280;52164;52.212;-1.010;2023-05-01T04:09:40;100641.94;;;10.11;77.90
62946;BME280;52164;52.212;-1.010;2023-05-01T04:12:05;100644.77;;;10.07;77.96
62946;BME280;52164;52.212;-1.010;2023-05-01T04:14:30;100639.59;;;10.04;78.02
62946;BME280;52164;52.212;-1.010;2023-05-01T04:16:59;100639.21;;;10.01;78.03
62946;BME280;52164;52.212;-1.010;2023-05-01T04:19:24;100640.45;;;9.99;78.05
62946;BME280;52164;52.212;-1.010;2023-05-01T04:21:49;100640.60;;;9.95;78.09
62946;BME280;52164;52.212;-1.010;2023-05-01T04:24:15;100642.55;;;9.91;77.84
62946;BME280;52164;52.212;-1.010;2023-05-01T04:26:40;100644.14;;;9.87;78.16
62946;BME280;52164;52.212;-1.010;2023-05-01T04:29:06;100644.13;;;9.84;78.21
62946;BME280;52164;52.212;-1.010;2023-05-01T04:31:32;100641.27;;;9.83;78.44
62946;BME280;52164;52.212;-1.010;2023-05-01T04:33:58;100641.98;;;9.82;78.57
62946;BME280;52164;52.212;-1.010;2023-05-01T04:36:24;100639.64;;;9.82;78.62
62946;BME280;52164;52.212;-1.010;2023-05-01T04:38:49;100638.59;;;9.83;78.29
62946;BME280;52164;52.212;-1.010;2023-05-01T04:41:14;100640.02;;;9.83;78.27
62946;BME280;52164;52.212;-1.010;2023-05-01T04:43:40;100640.58;;;9.85;78.40
62946;BME280;52164;52.212;-1.010;2023-05-01T04:46:05;100640.06;;;9.89;78.41
62946;BME280;52164;52.212;-1.010;2023-05-01T04:48:31;100643.98;;;9.91;78.38
62946;BME280;52164;52.212;-1.010;2023-05-01T04:51:00;100646.66;;;9.93;78.15
62946;BME280;52164;52.212;-1.010;2023-05-01T04:53:27;100652.54;;;9.94;78.01
62946;BME280;52164;52.212;-1.010;2023-05-01T04:55:53;100651.14;;;9.97;78.15
62946;BME280;52164;52.212;-1.010;2023-05-01T04:58:18;100659.17;;;10.00;77.91
62946;BME280;52164;52.212;-1.010;2023-05-01T05:00:43;100658.48;;;10.02;77.76
62946;BME280;52164;52.212;-1.010;2023-05-01T05:03:08;100663.65;;;10.06;77.99
62946;BME280;52164;52.212;-1.010;2023-05-01T05:05:34;100665.81;;;10.10;78.06
62946;BME280;52164;52.212;-1.010;2023-05-01T05:07:59;100670.83;;;10.14;77.94
62946;BME280;52164;52.212;-1.010;2023-05-01T05:10:24;100671.02;;;10.17;77.86
62946;BME280;52164;52.212;-1.010;2023-05-01T05:12:50;100673.90;;;10.23;78.13
62946;BME280;52164;52.212;-1.010;2023-05-01T05:15:15;100673.58;;;10.29;78.09
62946;BME280;52164;52.212;-1.010;2023-05-01T05:17:44;100671.65;;;10.35;78.07
62946;BME280;52164;52.212;-1.010;2023-05-01T05:20:10;100678.11;;;10.42;77.89
62946;BME280;52164;52.212;-1.010;2023-05-01T05:22:35;100674.91;;;10.49;77.71
62946;BME280;52164;52.212;-1.010;2023-05-01T05:25:02;100676.89;;;10.56;77.72
62946;BME280;52164;52.212;-1.010;2023-05-01T05:27:30;100674.77;;;10.62;77.36
62946;BME280;52164;52.212;-1.010;2023-05-01T05:30:00;100672.98;;;10.65;77.15
62946;BME280;52164;52.212;-1.010;2023-05-01T05:32:26;100673.55;;;10.67;77.22
62946;BME280;52164;52.212;-1.010;2023-05-01T05:34:51;100673.18;;;10.68;76.86
62946;BME280;52164;52.212;-1.010;2023-05-01T05:37:16;100671.73;;;10.67;76.67
62946;BME280;52164;52.212;-1.010;2023-05-01T05:39:41;100673.17;;;10.67;76.84
62946;BME280;52164;52.212;-1.010;2023-05-01T05:42:07;100676.56;;;10.63;76.75
62946;BME280;52164;52.212;-1.010;2023-05-01T05:44:32;100678.16;;;10.63;76.85
62946;BME280;52164;52.212;-1.010;2023-05-01T05:47:00;100678.88;;;10.62;76.95
62946;BME280;52164;52.212;-1.010;2023-05-01T05:49:25;100682.45;;;10.63;76.95
62946;BME280;52164;52.212;-1.010;2023-05-01T05:51:51;100684.77;;;10.65;77.11
62946;BME280;52164;52.212;-1.010;2023-05-01T05:54:17;100685.86;;;10.70;76.99
62946;BME280;52164;52.212;-1.010;2023-05-01T05:56:42;100687.83;;;10.73;77.06
62946;BME280;52164;52.212;-1.010;2023-05-01T05:59:07;100685.33;;;10.77;77.31
62946;BME280;52164;52.212;-1.010;2023-05-01T06:01:32;100689.10;;;10.82;76.98
62946;BME280;52164;52.212;-1.010;2023-05-01T06:03:58;100692.14;;;10.85;76.91
62946;BME280;52164;52.212;-1.010;2023-05-01T06:06:23;100688.39;;;10.88;76.75
62946;BME280;52164;52.212;-1.010;2023-05-01T06:08:49;100685.53;;;10.93;76.83
62946;BME280;52164;52.212;-1.010;2023-05-01T06:11:14;100683.04;;;10.98;76.60
62946;BME280;52164;52.212;-1.010;2023-05-01T06:13:39;100683.94;;;11.01;76.52
62946;BME280;52164;52.212;-1.010;2023-05-01T06:16:05;100685.20;;;11.07;76.60
62946;BME280;52164;52.212;-1.010;2023-05-01T06:18:31;100686.45;;;11.17;76.69
62946;BME280;52164;52.212;-1.010;2023-05-01T06:20:56;100680.73;;;11.28;76.69
62946;BME280;52164;52.212;-1.010;2023-05-01T06:23:22;100678.23;;;11.39;76.52
62946;BME280;52164;52.212;-1.010;2023-05-01T06:25:47;100681.98;;;11.48;76.35
62946;BME280;52164;52.212;-1.010;2023-05-01T06:28:13;100684.48;;;11.55;75.89
62946;BME280;52164;52.212;-1.010;2023-05-01T06:30:39;100684.99;;;11.59;76.16
62946;BME280;52164;52.212;-1.010;2023-05-01T06:33:04;100683.02;;;11.62;75.56
62946;BME280;52164;52.212;-1.010;2023-05-01T06:35:29;100684.27;;;11.63;75.60
62946;BME280;52164;52.212;-1.010;2023-05-01T06:37:55;100686.42;;;11.65;75.42
62946;BME280;52164;52.212;-1.010;2023-05-01T06:40:20;100686.79;;;11.67;75.50
62946;BME280;52164;52.212;-1.010;2023-05-01T06:42:45;100689.99;;;11.71;75.07
62946;BME280;52164;52.212;-1.010;2023-05-01T06:45:11;100692.48;;;11.73;75.10
62946;BME280;52164;52.212;-1.010;2023-05-01T06:47:36;100690.69;;;11.76;74.88
62946;BME280;52164;52.212;-1.010;2023-05-01T06:50:02;100694.27;;;11.80;74.94
62946;BME280;52164;52.212;-1.010;2023-05-01T06:52:28;100695.87;;;11.82;74.77
62946;BME280;52164;52.212;-1.010;2023-05-01T06:54:53;100701.41;;;11.83;74.66
62946;BME280;52164;52.212;-1.010;2023-05-01T06:57:19;100704.27;;;11.81;74.88
62946;BME280;52164;52.212;-1.010;2023-05-01T06:59:44;100703.02;;;11.80;74.63
62946;BME280;52164;52.212;-1.010;2023-05-01T07:02:09;100701.79;;;11.80;74.64
62946;BME280;52164;52.212;-1.010;2023-05-01T07:04:35;100707.67;;;11.82;74.88
62946;BME280;52164;52.212;-1.010;2023-05-01T07:07:00;100711.23;;;11.86;74.61
62946;BME280;52164;52.212;-1.010;2023-05-01T07:09:27;100711.94;;;11.90;74.77
62946;BME280;52164;52.212;-1.010;2023-05-01T07:11:52;100713.19;;;11.92;74.56
62946;BME280;52164;52.212;-1.010;2023-05-01T07:14:17;100711.98;;;11.95;74.48
62946;BME280;52164;52.212;-1.010;2023-05-01T07:16:42;100710.16;;;12.00;74.35
62946;BME280;52164;52.212;-1.010;2023-05-01T07:19:10;100713.55;;;12.04;74.12
62946;BME280;52164;52.212;-1.010;2023-05-01T07:21:37;100718.55;;;12.05;74.27
62946;BME280;52164;52.212;-1.010;2023-05-01T07:24:03;100719.61;;;12.06;74.54
62946;BME280;52164;52.212;-1.010;2023-05-01T07:26:28;100721.95;;;12.10;74.74
62946;BME280;52164;52.212;-1.010;2023-05-01T07:28:53;100724.96;;;12.16;74.44
62946;BME280;52164;52.212;-1.010;2023-05-01T07:31:19;100730.50;;;12.19;74.38
62946;BME280;52164;52.212;-1.010;2023-05-01T07:33:44;100731.02;;;12.27;74.49
62946;BME280;52164;52.212;-1.010;2023-05-01T07:36:10;100732.77;;;12.39;74.14
62946;BME280;52164;52.212;-1.010;2023-05-01T07:38:35;100730.92;;;12.50;73.91
62946;BME280;52164;52.212;-1.010;2023-05-01T07:41:00;100731.05;;;12.60;73.85
62946;BME280;52164;52.212;-1.010;2023-05-01T07:43:26;100729.19;;;12.73;73.41
62946;BME280;52164;52.212;-1.010;2023-05-01T07:45:54;100729.15;;;12.81;73.07
62946;BME280;52164;52.212;-1.010;2023-05-01T07:48:21;100731.05;;;12.93;72.90
62946;BME280;52164;52.212;-1.010;2023-05-01T07:50:46;100727.61;;;13.00;72.66
62946;BME280;52164;52.212;-1.010;2023-05-01T07:53:14;100718.44;;;13.05;72.96
62946;BME280;52164;52.212;-1.010;2023-05-01T07:55:40;100724.46;;;13.12;72.86
62946;BME280;52164;52.212;-1.010;2023-05-01T07:58:05;100723.75;;;13.14;72.41
62946;BME280;52164;52.212;-1.010;2023-05-01T08:00:31;100726.23;;;13.17;72.25
62946;BME280;52164;52.212;-1.010;2023-05-01T08:02:56;100722.79;;;13.22;72.53
62946;BME280;52164;52.212;-1.010;2023-05-01T08:05:21;100724.52;;;13.29;72.11
62946;BME280;52164;52.212;-1.010;2023-05-01T08:07:47;100718.95;;;13.34;72.38
62946;BME280;52164;52.212;-1.010;2023-05-01T08:10:12;100722.45;;;13.44;71.99
62946;BME280;52164;52.212;-1.010;2023-05-01T08:12:38;100724.02;;;13.54;72.13
62946;BME280;52164;52.212;-1.010;2023-05-01T08:15:03;100725.70;;;13.65;71.89
62946;BME280;52164;52.212;-1.010;2023-05-01T08:17:29;100721.65;;;13.75;71.71
62946;BME280;52164;52.212;-1.010;2023-05-01T08:19:59;100725.86;;;13.85;71.39
62946;BME280;52164;52.212;-1.010;2023-05-01T08:22:24;100726.65;;;13.95;71.14
62946;BME280;52164;52.212;-1.010;2023-05-01T08:24:50;100725.09;;;14.06;70.64
62946;BME280;52164;52.212;-1.010;2023-05-01T08:27:17;100723.92;;;14.16;70.60
62946;BME280;52164;52.212;-1.010;2023-05-01T08:29:43;100730.24;;;14.27;70.30
62946;BME280;52164;52.212;-1.010;2023-05-01T08:32:08;100728.34;;;14.37;69.68
62946;BME280;52164;52.212;-1.010;2023-05-01T08:34:34;100731.50;;;14.42;69.35
62946;BME280;52164;52.212;-1.010;2023-05-01T08:37:00;100737.31;;;14.51;68.98
62946;BME280;52164;52.212;-1.010;2023-05-01T08:39:25;100735.08;;;14.59;68.77
62946;BME280;52164;52.212;-1.010;2023-05-01T08:41:51;100738.86;;;14.72;68.57
62946;BME280;52164;52.212;-1.010;2023-05-01T08:44:16;100742.70;;;14.94;68.56
62946;BME280;52164;52.212;-1.010;2023-05-01T08:46:45;100743.95;;;15.19;67.79
62946;BME280;52164;52.212;-1.010;2023-05-01T08:49:11;100745.33;;;15.35;67.40
62946;BME280;52164;52.212;-1.010;2023-05-01T08:51:39;100743.80;;;15.39;66.88
62946;BME280;52164;52.212;-1.010;2023-05-01T08:54:05;100745.79;;;15.39;66.21
62946;BME280;52164;52.212;-1.010;2023-05-01T08:56:32;100748.33;;;15.38;66.10
62946;BME280;52164;52.212;-1.010;2023-05-01T08:58:59;100751.35;;;15.41;66.29
62946;BME280;52164;52.212;-1.010;2023-05-01T09:01:27;100752.07;;;15.41;65.97
62946;BME280;52164;52.212;-1.010;2023-05-01T09:03:53;100748.90;;;15.37;66.10
62946;BME280;52164;52.212;-1.010;2023-05-01T09:06:20;100753.87;;;15.41;66.02
62946;BME280;52164;52.212;-1.010;2023-05-01T09:08:45;100756.79;;;15.49;65.95
62946;BME280;52164;52.212;-1.010;2023-05-01T09:11:11;100762.80;;;15.56;65.68
62946;BME280;52164;52.212;-1.010;2023-05-01T09:13:36;100765.42;;;15.60;65.29
62946;BME280;52164;52.212;-1.010;2023-05-01T09:16:03;100762.40;;;15.69;65.04
62946;BME280;52164;52.212;-1.010;2023-05-01T09:18:28;100767.26;;;15.68;64.72
62946;BME280;52164;52.212;-1.010;2023-05-01T09:20:58;100770.73;;;15.64;64.63
62946;BME280;52164;52.212;-1.010;2023-05-01T09:23:23;100774.05;;;15.60;64.78
62946;BME280;52164;52.212;-1.010;2023-05-01T09:25:49;100774.34;;;15.64;64.77
62946;BME280;52164;52.212;-1.010;2023-05-01T09:28:14;100776.02;;;15.71;64.41
62946;BME280;52164;52.212;-1.010;2023-05-01T09:30:40;100776.55;;;15.72;64.53
62946;BME280;52164;52.212;-1.010;2023-05-01T09:33:09;100778.45;;;15.78;64.21
62946;BME280;52164;52.212;-1.010;2023-05-01T09:36:07;100777.46;;;15.85;64.42
62946;BME280;52164;52.212;-1.010;2023-05-01T09:38:22;100777.86;;;15.93;64.47
62946;BME280;52164;52.212;-1.010;2023-05-01T09:40:47;100784.19;;;16.11;64.40
62946;BME280;52164;52.212;-1.010;2023-05-01T09:43:13;100784.54;;;16.20;63.89
62946;BME280;52164;52.212;-1.010;2023-05-01T09:45:40;100784.34;;;16.22;63.61
62946;BME280;52164;52.212;-1.010;2023-05-01T09:48:08;100787.41;;;16.31;63.17
62946;BME280;52164;52.212;-1.010;2023-05-01T09:50:37;100785.90;;;16.34;62.77
62946;BME280;52164;52.212;-1.010;2023-05-01T09:53:06;100784.77;;;16.37;62.39
62946;BME280;52164;52.212;-1.010;2023-05-01T09:55:32;100777.73;;;16.38;62.22
62946;BME280;52164;52.212;-1.010;2023-05-01T09:57:57;100791.62;;;16.46;62.26
62946;BME280;52164;52.212;-1.010;2023-05-01T10:00:23;100789.86;;;16.53;61.33
62946;BME280;52164;52.212;-1.010;2023-05-01T10:02:49;100786.59;;;16.54;61.12
62946;BME280;52164;52.212;-1.010;2023-05-01T10:05:15;100790.77;;;16.61;61.12
62946;BME280;52164;52.212;-1.010;2023-05-01T10:07:57;100791.57;;;16.66;60.63
62946;BME280;52164;52.212;-1.010;2023-05-01T10:10:23;100789.63;;;16.82;60.38
62946;BME280;52164;52.212;-1.010;2023-05-01T10:12:48;100793.86;;;16.96;60.15
62946;BME280;52164;52.212;-1.010;2023-05-01T10:15:14;100791.99;;;16.98;59.88
62946;BME280;52164;52.212;-1.010;2023-05-01T10:17:40;100791.92;;;17.02;59.56
62946;BME280;52164;52.212;-1.010;2023-05-01T10:20:06;100785.59;;;17.02;59.22
62946;BME280;52164;52.212;-1.010;2023-05-01T10:22:33;100782.12;;;17.05;59.42
62946;BME280;52164;52.212;-1.010;2023-05-01T10:24:59;100782.18;;;17.18;59.29
62946;BME280;52164;52.212;-1.010;2023-05-01T10:27:25;100783.30;;;17.24;58.97
62946;BME280;52164;52.212;-1.010;2023-05-01T10:29:52;100788.15;;;17.25;58.80
62946;BME280;52164;52.212;-1.010;2023-05-01T10:32:18;100788.27;;;17.28;58.47
62946;BME280;52164;52.212;-1.010;2023-05-01T10:34:46;100786.27;;;17.36;58.49
62946;BME280;52164;52.212;-1.010;2023-05-01T10:37:20;100784.30;;;17.43;58.10
62946;BME280;52164;52.212;-1.010;2023-05-01T10:39:47;100785.49;;;17.54;58.25
62946;BME280;52164;52.212;-1.010;2023-05-01T10:42:12;100784.86;;;17.72;58.02
62946;BME280;52164;52.212;-1.010;2023-05-01T10:44:39;100782.28;;;17.89;57.70
62946;BME280;52164;52.212;-1.010;2023-05-01T10:47:42;100780.67;;;18.09;57.46
62946;BME280;52164;52.212;-1.010;2023-05-01T10:50:08;100783.69;;;18.31;57.20
62946;BME280;52164;52.212;-1.010;2023-05-01T10:54:44;100786.92;;;18.38;56.79
62946;BME280;52164;52.212;-1.010;2023-05-01T10:55:34;100788.06;;;18.30;56.44
62946;BME280;52164;52.212;-1.010;2023-05-01T10:58:00;100794.05;;;18.22;56.44
62946;BME280;52164;52.212;-1.010;2023-05-01T11:00:26;100796.91;;;18.10;56.39
62946;BME280;52164;52.212;-1.010;2023-05-01T11:02:51;100793.82;;;17.97;56.56
62946;BME280;52164;52.212;-1.010;2023-05-01T11:05:16;100791.75;;;17.85;56.11
62946;BME280;52164;52.212;-1.010;2023-05-01T11:07:41;100791.86;;;17.74;56.30
62946;BME280;52164;52.212;-1.010;2023-05-01T11:10:24;100794.71;;;17.67;56.13
62946;BME280;52164;52.212;-1.010;2023-05-01T11:12:50;100794.07;;;17.57;56.28
62946;BME280;52164;52.212;-1.010;2023-05-01T11:15:31;100800.05;;;17.49;56.35
62946;BME280;52164;52.212;-1.010;2023-05-01T11:17:59;100797.58;;;17.39;56.38
62946;BME280;52164;52.212;-1.010;2023-05-01T11:22:55;100799.58;;;17.23;56.45
62946;BME280;52164;52.212;-1.010;2023-05-01T11:25:21;100798.11;;;17.24;56.77
62946;BME280;52164;52.212;-1.010;2023-05-01T11:27:47;100803.55;;;17.30;56.87
62946;BME280;52164;52.212;-1.010;2023-05-01T11:30:15;100799.92;;;17.31;56.98
62946;BME280;52164;52.212;-1.010;2023-05-01T11:32:42;100799.92;;;17.31;57.07
62946;BME280;52164;52.212;-1.010;2023-05-01T11:35:24;100800.58;;;17.26;56.87
62946;BME280;52164;52.212;-1.010;2023-05-01T11:37:51;100805.52;;;17.14;56.88
62946;BME280;52164;52.212;-1.010;2023-05-01T11:42:46;100812.37;;;16.90;57.49
62946;BME280;52164;52.212;-1.010;2023-05-01T11:45:11;100815.27;;;16.79;57.46
62946;BME280;52164;52.212;-1.010;2023-05-01T11:47:37;100816.92;;;16.69;57.67
62946;BME280;52164;52.212;-1.010;2023-05-01T11:50:03;100822.95;;;16.56;57.86
62946;BME280;52164;52.212;-1.010;2023-05-01T11:52:29;100830.17;;;16.36;58.06
62946;BME280;52164;52.212;-1.010;2023-05-01T11:54:55;100831.76;;;16.08;58.29
62946;BME280;52164;52.212;-1.010;2023-05-01T11:57:20;100835.81;;;15.81;58.65
62946;BME280;52164;52.212;-1.010;2023-05-01T11:59:46;100834.52;;;15.59;59.05
62946;BME280;52164;52.212;-1.010;2023-05-01T12:02:19;100833.14;;;15.43;59.46
62946;BME280;52164;52.212;-1.010;2023-05-01T12:04:44;100838.03;;;15.42;59.44
62946;BME280;52164;52.212;-1.010;2023-05-01T12:07:25;100834.41;;;15.43;59.34
62946;BME280;52164;52.212;-1.010;2023-05-01T12:09:51;100835.09;;;15.45;59.69
62946;BME280;52164;52.212;-1.010;2023-05-01T12:12:16;100831.38;;;15.53;59.81
62946;BME280;52164;52.212;-1.010;2023-05-01T12:14:42;100825.27;;;15.64;59.71
62946;BME280;52164;52.212;-1.010;2023-05-01T12:17:07;100824.67;;;15.80;59.25
62946;BME280;52164;52.212;-1.010;2023-05-01T12:19:44;100824.04;;;15.97;59.14
62946;BME280;52164;52.212;-1.010;2023-05-01T12:22:10;100822.36;;;16.21;58.77
62946;BME280;52164;52.212;-1.010;2023-05-01T12:24:35;100816.34;;;16.44;58.30
62946;BME280;52164;52.212;-1.010;2023-05-01T12:27:01;100812.24;;;16.78;58.00
62946;BME280;52164;52.212;-1.010;2023-05-01T12:29:43;100816.11;;;17.08;57.32
62946;BME280;52164;52.212;-1.010;2023-05-01T12:32:11;100813.65;;;17.38;56.94
62946;BME280;52164;52.212;-1.010;2023-05-01T12:34:37;100813.41;;;17.70;56.34
62946;BME280;52164;52.212;-1.010;2023-05-01T12:37:03;100807.34;;;18.05;56.32
62946;BME280;52164;52.212;-1.010;2023-05-01T12:39:34;100808.69;;;18.42;55.49
62946;BME280;52164;52.212;-1.010;2023-05-01T12:42:02;100810.80;;;18.70;54.06
62946;BME280;52164;52.212;-1.010;2023-05-01T12:44:27;100812.13;;;18.93;53.52
62946;BME280;52164;52.212;-1.010;2023-05-01T12:46:58;100810.21;;;19.09;53.35
62946;BME280;52164;52.212;-1.010;2023-05-01T12:49:24;100812.78;;;19.20;52.73
62946;BME280;52164;52.212;-1.010;2023-05-01T12:51:50;100814.28;;;19.24;52.47